KHYW

Conway-Horry County Airport

Conway, South Carolina, USA
METAR KHYW 202015Z AUTO 23007KT 7SM SCT041 SCT050 SCT090 32/24 A3000 RMK AO2
Observed Flight Rules
Aug-20 @ 20:15 UTC (15 minutes ago) Visual Flight Rules
Wind Visibility Clouds
230° at 7 knots 7 miles
  • Scattered at 4,100' AGL
  • Scattered at 5,000' AGL
  • Scattered at 9,000' AGL
Temperatures Readings
Current 32°C / 90°F
Dewpoint 24°C / 75°F
Humidity 63%
Altimeter 30" Hg
Pressure 1016 hPa
Elevation 11
METAR KHYW 202015Z AUTO 23007KT 7SM SCT041 SCT050 SCT090 32/24 A3000 RMK AO2
Observed Flight Rules
Aug-20 @ 20:15 UTC
(15 minutes ago)
VFR
Wind Visibility
230° at 7 knots 7 miles
Clouds
  • Scattered at 4,100' AGL
  • Scattered at 5,000' AGL
  • Scattered at 9,000' AGL
Temperature Dewpoint
32°C / 90°F 24°C / 75°F
Humidity Altimeter Pressure
63% 30" Hg 1016 hPa